Time;durP1;ratioP1;P1;durP2;ratioP2;P2;SDS_P1;SDS_P2;PMS_P1;PMS_P2;Temp;Humidity;BMP_temperature;BMP_pressure;BME280_temperature;BME280_humidity;BME280_pressure;Samples;Min_cycle;Max_cycle;Signal;HPM_P1;HPM_P2
2022/01/20 00:00:53;;;;;;;0.60;0.50;;;;;;;;;;5058061;28;20203;-72
2022/01/20 00:03:24;;;;;;;0.60;0.50;;;;;;;;;;5056324;28;20409;-72
2022/01/20 00:27:38;;;;;;;0.60;0.60;;;;;;;;;;5055501;28;20247;-72
2022/01/20 00:33:00;;;;;;;0.60;0.50;;;;;;;;;;5054100;28;20213;-72
2022/01/20 00:37:13;;;;;;;0.60;0.50;;;;;;;;;;5053239;28;20200;-72
2022/01/20 00:38:14;;;;;;;0.60;0.50;;;;;;;;;;5073705;28;20776;-72
2022/01/20 00:40:44;;;;;;;0.60;0.60;;;;;;;;;;5073527;28;20204;-72
2022/01/20 00:43:11;;;;;;;0.60;0.60;;;;;;;;;;5057353;28;20590;-73
2022/01/20 00:45:38;;;;;;;0.60;0.50;;;;;;;;;;5053827;28;20216;-72
2022/01/20 00:48:05;;;;;;;0.60;0.55;;;;;;;;;;5053581;28;20206;-72
2022/01/20 00:50:32;;;;;;;0.60;0.60;;;;;;;;;;5073373;28;20234;-72
2022/01/20 00:52:59;;;;;;;0.60;0.50;;;;;;;;;;5074822;28;20205;-73
2022/01/20 00:58:17;;;;;;;0.60;0.60;;;;;;;;;;5073757;28;20572;-72
2022/01/20 01:00:44;;;;;;;0.60;0.50;;;;;;;;;;5066083;28;20189;-72
2022/01/20 01:03:12;;;;;;;0.60;0.50;;;;;;;;;;5053537;28;20391;-72
2022/01/20 01:05:51;;;;;;;0.60;0.60;;;;;;;;;;5054921;28;20189;-72
2022/01/20 01:08:18;;;;;;;0.60;0.60;;;;;;;;;;5073181;28;20246;-72
2022/01/20 01:10:49;;;;;;;0.60;0.60;;;;;;;;;;5056070;28;20196;-72
2022/01/20 01:13:20;;;;;;;0.60;0.60;;;;;;;;;;5069436;28;20262;-72
2022/01/20 01:15:49;;;;;;;0.60;0.60;;;;;;;;;;5057145;28;20193;-72
2022/01/20 01:21:15;;;;;;;0.60;0.50;;;;;;;;;;5067161;28;20284;-74
2022/01/20 01:23:43;;;;;;;0.60;0.60;;;;;;;;;;5070947;28;20242;-72
2022/01/20 01:26:11;;;;;;;0.60;0.50;;;;;;;;;;5073015;28;20258;-72
2022/01/20 01:28:40;;;;;;;0.60;0.60;;;;;;;;;;5063473;28;20288;-72
2022/01/20 01:33:59;;;;;;;0.60;0.50;;;;;;;;;;5053342;28;20221;-72
2022/01/20 01:36:29;;;;;;;0.60;0.50;;;;;;;;;;5053132;28;20205;-72
2022/01/20 01:38:59;;;;;;;0.60;0.50;;;;;;;;;;5062533;28;20254;-72
2022/01/20 01:41:39;;;;;;;0.60;0.60;;;;;;;;;;5071827;28;20200;-73
2022/01/20 01:44:21;;;;;;;0.60;0.50;;;;;;;;;;5070481;28;20278;-74
2022/01/20 01:46:57;;;;;;;0.60;0.50;;;;;;;;;;5073513;28;20197;-73
2022/01/20 01:49:27;;;;;;;0.60;0.50;;;;;;;;;;5072674;28;20291;-73
2022/01/20 01:51:57;;;;;;;0.60;0.50;;;;;;;;;;5072563;28;20212;-74
2022/01/20 01:54:28;;;;;;;0.60;0.52;;;;;;;;;;5072562;28;20562;-73
2022/01/20 01:57:24;;;;;;;0.60;0.50;;;;;;;;;;5071933;28;20258;-73
2022/01/20 02:00:03;;;;;;;0.60;0.60;;;;;;;;;;5072302;28;20225;-73
2022/01/20 02:02:48;;;;;;;0.60;0.50;;;;;;;;;;5072522;28;20200;-73
2022/01/20 02:20:02;;;;;;;0.60;0.50;;;;;;;;;;5056134;28;20685;-73
2022/01/20 02:22:47;;;;;;;0.60;0.50;;;;;;;;;;5051751;28;20300;-73
2022/01/20 02:25:22;;;;;;;0.60;0.50;;;;;;;;;;5036732;28;20193;-73
2022/01/20 02:27:52;;;;;;;0.60;0.50;;;;;;;;;;5052593;28;20222;-73
2022/01/20 02:30:25;;;;;;;0.60;0.50;;;;;;;;;;5051929;28;20681;-74
2022/01/20 02:32:57;;;;;;;0.60;0.50;;;;;;;;;;5051657;28;20197;-74
2022/01/20 02:35:39;;;;;;;0.60;0.50;;;;;;;;;;5052141;28;20200;-73
2022/01/20 02:38:22;;;;;;;0.60;0.50;;;;;;;;;;5040227;28;20227;-74
2022/01/20 02:46:44;;;;;;;0.60;0.50;;;;;;;;;;5051870;28;20194;-72
2022/01/20 02:49:15;;;;;;;0.60;0.50;;;;;;;;;;5051600;28;20558;-73
2022/01/20 02:51:50;;;;;;;0.60;0.50;;;;;;;;;;5051700;28;20211;-73
2022/01/20 02:54:17;;;;;;;0.60;0.60;;;;;;;;;;5051623;28;20715;-72
2022/01/20 02:56:44;;;;;;;0.60;0.50;;;;;;;;;;5052065;28;20185;-72
2022/01/20 02:59:13;;;;;;;0.60;0.57;;;;;;;;;;5070137;28;20197;-72
2022/01/20 03:01:40;;;;;;;0.60;0.50;;;;;;;;;;5055189;28;20188;-72
2022/01/20 03:04:09;;;;;;;0.60;0.50;;;;;;;;;;5071166;28;20250;-73
2022/01/20 03:06:37;;;;;;;0.60;0.50;;;;;;;;;;5071719;28;20597;-73
2022/01/20 03:09:06;;;;;;;0.60;0.60;;;;;;;;;;5071145;28;20719;-74
2022/01/20 03:11:33;;;;;;;0.60;0.50;;;;;;;;;;5066687;28;20205;-73
2022/01/20 03:14:01;;;;;;;0.60;0.50;;;;;;;;;;5070389;28;20259;-72
2022/01/20 03:16:28;;;;;;;0.60;0.50;;;;;;;;;;5065530;28;20258;-72
2022/01/20 03:18:55;;;;;;;0.60;0.50;;;;;;;;;;5054820;28;20255;-72
2022/01/20 03:21:22;;;;;;;0.60;0.50;;;;;;;;;;5037959;28;20202;-73
2022/01/20 03:23:49;;;;;;;0.60;0.50;;;;;;;;;;5051483;28;20189;-72
2022/01/20 03:26:18;;;;;;;0.60;0.50;;;;;;;;;;5051438;28;20223;-73
2022/01/20 03:28:45;;;;;;;0.60;0.60;;;;;;;;;;5051600;28;20194;-72
2022/01/20 03:31:12;;;;;;;0.60;0.50;;;;;;;;;;5052415;28;20189;-72
2022/01/20 03:33:39;;;;;;;0.60;0.50;;;;;;;;;;5055330;28;20619;-72
2022/01/20 03:36:06;;;;;;;0.60;0.50;;;;;;;;;;5055379;28;20666;-73
2022/01/20 03:39:05;;;;;;;0.60;0.50;;;;;;;;;;5066048;28;20211;-72
2022/01/20 03:41:36;;;;;;;0.60;0.50;;;;;;;;;;5046558;28;20246;-73
2022/01/20 03:44:10;;;;;;;0.60;0.60;;;;;;;;;;5056569;28;20189;-73
2022/01/20 03:46:38;;;;;;;0.60;0.60;;;;;;;;;;5074640;28;20200;-72
2022/01/20 03:49:25;;;;;;;0.60;0.50;;;;;;;;;;5058612;28;20210;-72
2022/01/20 03:51:54;;;;;;;0.60;0.50;;;;;;;;;;5074849;28;20263;-73
2022/01/20 03:54:26;;;;;;;0.60;0.50;;;;;;;;;;5058928;28;20271;-73
2022/01/20 03:57:33;;;;;;;0.60;0.50;;;;;;;;;;5043274;28;20239;-72
2022/01/20 04:00:18;;;;;;;0.60;0.60;;;;;;;;;;5037184;28;20251;-72
2022/01/20 04:03:05;;;;;;;0.60;0.60;;;;;;;;;;5040500;28;20193;-72
2022/01/20 04:06:01;;;;;;;0.60;0.60;;;;;;;;;;5039533;28;20197;-73
2022/01/20 04:08:47;;;;;;;0.60;0.50;;;;;;;;;;5071140;28;20537;-73
2022/01/20 04:11:15;;;;;;;0.60;0.50;;;;;;;;;;5057821;28;20292;-73
2022/01/20 04:13:44;;;;;;;0.60;0.50;;;;;;;;;;5058183;28;20231;-72
2022/01/20 04:16:39;;;;;;;0.60;0.50;;;;;;;;;;5073975;28;20641;-72
2022/01/20 04:19:07;;;;;;;0.60;0.60;;;;;;;;;;5074348;28;20234;-72
2022/01/20 04:21:35;;;;;;;0.60;0.50;;;;;;;;;;5057720;28;20567;-73
2022/01/20 04:24:02;;;;;;;0.60;0.60;;;;;;;;;;5071272;28;20194;-72
2022/01/20 04:26:30;;;;;;;0.60;0.50;;;;;;;;;;5074663;28;20561;-72
2022/01/20 04:29:01;;;;;;;0.60;0.60;;;;;;;;;;5057951;28;20189;-72
2022/01/20 04:31:31;;;;;;;0.60;0.60;;;;;;;;;;5057999;28;20193;-72
2022/01/20 04:33:59;;;;;;;0.60;0.50;;;;;;;;;;5074306;28;20669;-73
2022/01/20 04:36:27;;;;;;;0.60;0.60;;;;;;;;;;5073509;28;20581;-72
2022/01/20 04:38:55;;;;;;;0.60;0.50;;;;;;;;;;5053964;28;20198;-73
2022/01/20 04:41:23;;;;;;;0.60;0.50;;;;;;;;;;5054373;28;20513;-75
2022/01/20 04:43:51;;;;;;;0.60;0.60;;;;;;;;;;5037558;28;20182;-73
2022/01/20 04:49:07;;;;;;;0.60;0.50;;;;;;;;;;5054017;28;20243;-74
2022/01/20 04:57:14;;;;;;;;;;;;;;;;;;;;;
2022/01/20 04:59:29;;;;;;;0.60;0.50;;;;;;;;;;5073912;28;20218;-73
2022/01/20 05:01:58;;;;;;;0.60;0.50;;;;;;;;;;5073602;28;20196;-73
2022/01/20 05:04:43;;;;;;;0.60;0.50;;;;;;;;;;5056397;28;20194;-73
2022/01/20 05:07:34;;;;;;;0.60;0.50;;;;;;;;;;5058621;28;20224;-73
2022/01/20 05:10:06;;;;;;;0.60;0.50;;;;;;;;;;5067359;28;20348;-72
2022/01/20 05:13:06;;;;;;;0.60;0.55;;;;;;;;;;5064082;28;20236;-72
2022/01/20 05:15:23;;;;;;;0.60;0.50;;;;;;;;;;5063024;28;20238;-73
2022/01/20 05:17:53;;;;;;;0.60;0.50;;;;;;;;;;5071906;28;20196;-73
2022/01/20 05:20:20;;;;;;;0.60;0.60;;;;;;;;;;5055566;28;20262;-74
2022/01/20 05:22:47;;;;;;;0.60;0.60;;;;;;;;;;5054937;28;20266;-73
2022/01/20 05:25:18;;;;;;;0.80;0.80;;;;;;;;;;5071813;28;20192;-74
2022/01/20 05:27:45;;;;;;;0.60;0.50;;;;;;;;;;5071443;28;20280;-73
2022/01/20 05:30:14;;;;;;;0.60;0.57;;;;;;;;;;5067553;28;20351;-73
2022/01/20 05:33:02;;;;;;;0.60;0.50;;;;;;;;;;5074558;28;20201;-74
2022/01/20 05:35:30;;;;;;;0.60;0.60;;;;;;;;;;5072972;28;20216;-74
2022/01/20 05:38:00;;;;;;;0.60;0.50;;;;;;;;;;5054313;28;20300;-73
2022/01/20 05:40:28;;;;;;;0.60;0.50;;;;;;;;;;5073004;28;20309;-73
2022/01/20 05:42:55;;;;;;;0.60;0.60;;;;;;;;;;5072699;28;20180;-73
2022/01/20 05:45:24;;;;;;;0.60;0.60;;;;;;;;;;5052573;28;20221;-74
2022/01/20 05:48:07;;;;;;;0.60;0.50;;;;;;;;;;5052698;28;20247;-74
2022/01/20 05:50:56;;;;;;;0.60;0.50;;;;;;;;;;5056058;28;20667;-73
2022/01/20 05:53:23;;;;;;;0.60;0.60;;;;;;;;;;5052050;28;20213;-73
2022/01/20 05:55:50;;;;;;;0.60;0.50;;;;;;;;;;5053101;28;20275;-74
2022/01/20 05:58:19;;;;;;;0.60;0.60;;;;;;;;;;5060398;28;20201;-73
2022/01/20 06:00:47;;;;;;;0.60;0.50;;;;;;;;;;5053641;28;20586;-74
2022/01/20 06:06:03;;;;;;;0.60;0.50;;;;;;;;;;5052759;28;20190;-75
2022/01/20 06:08:35;;;;;;;0.60;0.60;;;;;;;;;;5058042;28;20270;-73
2022/01/20 06:11:02;;;;;;;0.60;0.50;;;;;;;;;;5072658;28;20284;-74
2022/01/20 06:13:30;;;;;;;0.60;0.50;;;;;;;;;;5070636;28;20653;-73
2022/01/20 06:15:58;;;;;;;0.60;0.60;;;;;;;;;;5055001;28;20678;-73
2022/01/20 06:18:24;;;;;;;0.60;0.60;;;;;;;;;;5055922;28;20688;-72
2022/01/20 06:20:56;;;;;;;0.60;0.60;;;;;;;;;;5055974;28;20254;-73
2022/01/20 06:23:25;;;;;;;0.60;0.50;;;;;;;;;;5071834;28;20220;-74
2022/01/20 06:25:53;;;;;;;0.60;0.50;;;;;;;;;;5070082;28;20213;-75
2022/01/20 06:28:20;;;;;;;0.60;0.50;;;;;;;;;;5054922;28;20197;-73
2022/01/20 06:30:49;;;;;;;0.60;0.55;;;;;;;;;;5052188;28;20198;-75
2022/01/20 06:33:16;;;;;;;0.60;0.50;;;;;;;;;;5040003;28;20229;-74
2022/01/20 06:35:52;;;;;;;0.60;0.60;;;;;;;;;;5056392;28;20212;-75
2022/01/20 06:38:20;;;;;;;0.60;0.50;;;;;;;;;;5076391;28;20315;-75
2022/01/20 06:40:49;;;;;;;0.60;0.60;;;;;;;;;;5069457;28;20199;-75
2022/01/20 06:43:19;;;;;;;0.60;0.50;;;;;;;;;;5073517;28;20267;-74
2022/01/20 06:45:47;;;;;;;0.60;0.60;;;;;;;;;;5055276;28;20189;-72
2022/01/20 06:48:19;;;;;;;0.60;0.50;;;;;;;;;;5071758;28;20310;-72
2022/01/20 06:51:14;;;;;;;0.60;0.60;;;;;;;;;;5072586;28;20209;-72
2022/01/20 06:53:43;;;;;;;0.60;0.60;;;;;;;;;;5071676;28;20227;-72
2022/01/20 06:56:12;;;;;;;0.60;0.60;;;;;;;;;;5059433;28;20742;-73
2022/01/20 06:59:00;;;;;;;0.60;0.50;;;;;;;;;;5051923;28;20667;-75
2022/01/20 07:01:28;;;;;;;0.60;0.50;;;;;;;;;;5035141;28;20182;-73
2022/01/20 07:03:55;;;;;;;0.60;0.60;;;;;;;;;;5053749;28;20193;-73
2022/01/20 07:06:23;;;;;;;0.60;0.60;;;;;;;;;;5057760;28;20589;-72
2022/01/20 07:09:13;;;;;;;0.60;0.60;;;;;;;;;;5064874;28;20275;-73
2022/01/20 07:11:41;;;;;;;0.60;0.50;;;;;;;;;;5055789;28;20202;-72
2022/01/20 07:14:08;;;;;;;0.60;0.60;;;;;;;;;;5055899;28;20259;-73
2022/01/20 07:16:35;;;;;;;0.60;0.60;;;;;;;;;;5069031;28;20567;-72
2022/01/20 07:19:04;;;;;;;0.60;0.60;;;;;;;;;;5055766;28;20198;-73
2022/01/20 07:21:34;;;;;;;0.60;0.50;;;;;;;;;;5038576;28;20239;-73
2022/01/20 07:24:05;;;;;;;0.60;0.60;;;;;;;;;;5055761;28;20206;-74
2022/01/20 07:26:32;;;;;;;0.60;0.60;;;;;;;;;;5039329;28;20559;-73
2022/01/20 07:29:07;;;;;;;0.60;0.60;;;;;;;;;;5055903;28;20263;-74
2022/01/20 07:31:35;;;;;;;0.60;0.60;;;;;;;;;;5055451;28;20284;-73
2022/01/20 07:34:02;;;;;;;0.60;0.60;;;;;;;;;;5058298;28;20536;-74
2022/01/20 07:36:30;;;;;;;0.60;0.60;;;;;;;;;;5075333;28;20212;-74
2022/01/20 07:38:58;;;;;;;0.60;0.60;;;;;;;;;;5070880;28;20263;-73
2022/01/20 07:41:25;;;;;;;0.60;0.50;;;;;;;;;;5038348;28;20224;-73
2022/01/20 07:43:53;;;;;;;0.60;0.60;;;;;;;;;;5043841;28;20200;-73
2022/01/20 07:47:05;;;;;;;0.60;0.50;;;;;;;;;;5070425;28;20197;-73
2022/01/20 07:49:32;;;;;;;0.60;0.60;;;;;;;;;;5057712;28;20299;-74
2022/01/20 07:52:00;;;;;;;0.60;0.50;;;;;;;;;;5074795;28;20215;-73
2022/01/20 07:54:28;;;;;;;0.60;0.50;;;;;;;;;;5058113;28;20199;-73
2022/01/20 07:56:55;;;;;;;0.60;0.50;;;;;;;;;;5074824;28;20539;-74
2022/01/20 07:59:24;;;;;;;0.60;0.52;;;;;;;;;;5074564;28;20284;-73
2022/01/20 08:01:51;;;;;;;0.60;0.50;;;;;;;;;;5074816;28;20211;-74
2022/01/20 08:04:20;;;;;;;1.15;1.00;;;;;;;;;;5074809;28;20185;-73
2022/01/20 08:06:49;;;;;;;0.60;0.50;;;;;;;;;;5057765;28;20614;-73
2022/01/20 08:09:23;;;;;;;0.60;0.60;;;;;;;;;;5073611;28;20205;-73
2022/01/20 08:12:19;;;;;;;0.60;0.60;;;;;;;;;;5062188;28;20361;-73
2022/01/20 08:14:58;;;;;;;0.60;0.50;;;;;;;;;;5058706;28;20296;-73
2022/01/20 08:17:48;;;;;;;0.60;0.60;;;;;;;;;;5074405;28;20202;-73
2022/01/20 08:20:17;;;;;;;0.60;0.50;;;;;;;;;;5074018;28;20254;-74
2022/01/20 08:22:51;;;;;;;0.60;0.50;;;;;;;;;;5073412;28;20303;-74
2022/01/20 08:25:19;;;;;;;0.60;0.60;;;;;;;;;;5074275;28;20557;-73
2022/01/20 08:27:47;;;;;;;0.60;0.60;;;;;;;;;;5053864;28;20190;-73
2022/01/20 08:30:15;;;;;;;0.60;0.60;;;;;;;;;;5054017;28;20662;-73
2022/01/20 08:32:42;;;;;;;0.60;0.50;;;;;;;;;;5070977;28;20211;-74
2022/01/20 08:35:34;;;;;;;0.60;0.60;;;;;;;;;;5058514;28;20204;-73
2022/01/20 08:38:06;;;;;;;0.60;0.50;;;;;;;;;;5058071;28;20244;-73
2022/01/20 08:40:35;;;;;;;0.60;0.50;;;;;;;;;;5074145;28;20193;-73
2022/01/20 08:43:02;;;;;;;0.60;0.60;;;;;;;;;;5057522;28;20242;-73
2022/01/20 08:45:31;;;;;;;0.60;0.60;;;;;;;;;;5056441;28;20191;-75
2022/01/20 08:47:59;;;;;;;0.60;0.60;;;;;;;;;;5053902;28;20204;-73
2022/01/20 08:50:43;;;;;;;1.05;0.95;;;;;;;;;;5067286;28;20208;-73
2022/01/20 08:53:11;;;;;;;0.60;0.50;;;;;;;;;;5057275;28;20681;-73
2022/01/20 08:55:38;;;;;;;0.60;0.60;;;;;;;;;;5070476;28;20211;-71
2022/01/20 08:58:14;;;;;;;0.60;0.50;;;;;;;;;;5073482;28;20649;-72
2022/01/20 09:00:41;;;;;;;0.60;0.50;;;;;;;;;;5056339;28;20550;-72
2022/01/20 09:03:09;;;;;;;0.60;0.60;;;;;;;;;;5048581;28;20210;-71
2022/01/20 09:06:02;;;;;;;0.60;0.50;;;;;;;;;;5073351;28;20238;-74
2022/01/20 09:08:39;;;;;;;0.60;0.50;;;;;;;;;;5069047;28;20229;-73
2022/01/20 09:11:19;;;;;;;0.60;0.60;;;;;;;;;;5053491;28;20221;-73
2022/01/20 09:16:34;;;;;;;0.60;0.60;;;;;;;;;;5053469;28;20631;-73
2022/01/20 09:19:11;;;;;;;0.60;0.60;;;;;;;;;;5053024;28;20201;-74
2022/01/20 09:21:45;;;;;;;0.60;0.60;;;;;;;;;;5071915;28;20225;-73
2022/01/20 09:24:12;;;;;;;0.60;0.60;;;;;;;;;;5068928;28;20277;-73
2022/01/20 09:26:39;;;;;;;0.60;0.50;;;;;;;;;;5073062;28;20199;-73
2022/01/20 09:29:07;;;;;;;0.60;0.60;;;;;;;;;;5071497;28;20226;-74
2022/01/20 09:31:38;;;;;;;0.80;0.80;;;;;;;;;;5056895;28;20204;-73
2022/01/20 09:34:09;;;;;;;0.60;0.50;;;;;;;;;;5073313;28;20204;-74
2022/01/20 09:36:39;;;;;;;0.60;0.60;;;;;;;;;;5072155;28;20485;-74
2022/01/20 09:39:08;;;;;;;0.60;0.50;;;;;;;;;;5070933;28;20450;-75
2022/01/20 09:41:47;;;;;;;0.60;0.60;;;;;;;;;;5072586;28;20453;-73
2022/01/20 09:44:15;;;;;;;0.60;0.60;;;;;;;;;;5072768;28;20443;-73
2022/01/20 09:46:44;;;;;;;0.60;0.60;;;;;;;;;;5068301;28;20438;-73
2022/01/20 09:49:48;;;;;;;2.20;1.00;;;;;;;;;;5072487;28;20450;-72
2022/01/20 09:52:26;;;;;;;0.60;0.60;;;;;;;;;;5071579;28;20784;-73
2022/01/20 09:55:08;;;;;;;0.60;0.60;;;;;;;;;;5063829;28;20447;-73
2022/01/20 09:57:35;;;;;;;0.60;0.60;;;;;;;;;;5052406;28;20444;-73
2022/01/20 10:00:04;;;;;;;0.60;0.50;;;;;;;;;;5052237;28;20432;-72
2022/01/20 10:02:51;;;;;;;0.70;0.70;;;;;;;;;;5053900;28;20525;-73
2022/01/20 10:05:29;;;;;;;0.60;0.60;;;;;;;;;;5053862;28;20464;-72
2022/01/20 10:08:00;;;;;;;0.60;0.60;;;;;;;;;;5055264;28;20462;-74
2022/01/20 10:10:43;;;;;;;0.60;0.60;;;;;;;;;;5036298;28;20455;-73
2022/01/20 10:13:24;;;;;;;0.60;0.60;;;;;;;;;;5052380;28;20498;-73
2022/01/20 10:16:03;;;;;;;0.60;0.60;;;;;;;;;;5066346;28;20482;-73
2022/01/20 10:18:51;;;;;;;0.60;0.60;;;;;;;;;;5071740;28;20443;-74
2022/01/20 10:21:26;;;;;;;0.60;0.60;;;;;;;;;;5053784;28;20943;-74
2022/01/20 10:24:05;;;;;;;0.60;0.60;;;;;;;;;;5051769;28;20944;-74
2022/01/20 10:26:42;;;;;;;0.70;0.60;;;;;;;;;;5051893;28;20439;-73
2022/01/20 10:29:12;;;;;;;0.60;0.60;;;;;;;;;;5051847;28;20444;-74
2022/01/20 10:31:41;;;;;;;0.60;0.60;;;;;;;;;;5052110;28;20491;-73
2022/01/20 10:34:19;;;;;;;0.60;0.60;;;;;;;;;;5054200;28;20497;-73
2022/01/20 10:36:51;;;;;;;0.60;0.60;;;;;;;;;;5051726;28;20998;-73
2022/01/20 10:39:30;;;;;;;0.60;0.57;;;;;;;;;;5064576;28;20451;-73
2022/01/20 10:42:00;;;;;;;0.60;0.60;;;;;;;;;;5074894;28;20454;-74
2022/01/20 10:44:28;;;;;;;0.60;0.60;;;;;;;;;;5056661;28;20492;-74
2022/01/20 10:47:15;;;;;;;0.60;0.60;;;;;;;;;;5061604;28;20923;-73
2022/01/20 10:49:43;;;;;;;0.60;0.60;;;;;;;;;;5059845;28;20460;-73
2022/01/20 10:52:20;;;;;;;0.60;0.60;;;;;;;;;;5060187;28;20458;-72
2022/01/20 10:54:49;;;;;;;0.70;0.60;;;;;;;;;;5072730;28;20524;-74
2022/01/20 10:57:30;;;;;;;0.60;0.60;;;;;;;;;;5065503;28;20550;-73
2022/01/20 11:00:02;;;;;;;0.70;0.60;;;;;;;;;;5060402;28;20509;-74
2022/01/20 11:02:49;;;;;;;0.60;0.60;;;;;;;;;;5051160;28;20439;-75
2022/01/20 11:05:16;;;;;;;0.60;0.60;;;;;;;;;;5056676;28;20423;-74
2022/01/20 11:07:44;;;;;;;0.60;0.50;;;;;;;;;;5071390;28;20494;-73
2022/01/20 11:10:13;;;;;;;0.60;0.60;;;;;;;;;;5058003;28;20436;-74
2022/01/20 11:12:45;;;;;;;0.70;0.60;;;;;;;;;;5051368;28;20421;-74
2022/01/20 11:15:40;;;;;;;0.60;0.60;;;;;;;;;;5052480;28;20499;-75
2022/01/20 11:18:11;;;;;;;0.60;0.60;;;;;;;;;;5062443;28;20455;-74
2022/01/20 11:20:41;;;;;;;0.60;0.60;;;;;;;;;;5053760;28;20439;-74
2022/01/20 11:23:11;;;;;;;0.60;0.60;;;;;;;;;;5068840;28;20864;-75
2022/01/20 11:25:47;;;;;;;1.13;1.03;;;;;;;;;;5054849;28;20796;-73
2022/01/20 11:28:58;;;;;;;0.67;0.60;;;;;;;;;;5078287;28;20520;-75
2022/01/20 11:31:46;;;;;;;0.60;0.53;;;;;;;;;;5058331;28;21009;-75
2022/01/20 11:34:57;;;;;;;0.60;0.53;;;;;;;;;;5071430;28;20435;-76
2022/01/20 11:37:25;;;;;;;0.60;0.60;;;;;;;;;;5073011;28;20485;-74
2022/01/20 11:40:06;;;;;;;0.60;0.60;;;;;;;;;;5067837;28;20442;-74
2022/01/20 11:42:32;;;;;;;0.70;0.60;;;;;;;;;;5072426;28;20896;-74
2022/01/20 11:45:01;;;;;;;0.70;0.60;;;;;;;;;;5062389;28;20439;-74
2022/01/20 11:47:30;;;;;;;0.63;0.60;;;;;;;;;;5071795;28;20431;-75
2022/01/20 11:49:57;;;;;;;0.60;0.60;;;;;;;;;;5063888;28;20509;-73
2022/01/20 11:52:24;;;;;;;0.60;0.60;;;;;;;;;;5053945;28;20546;-73
2022/01/20 11:54:52;;;;;;;0.60;0.50;;;;;;;;;;5054477;28;20440;-74
2022/01/20 11:57:21;;;;;;;0.60;0.60;;;;;;;;;;5057440;28;20517;-74
2022/01/20 11:59:50;;;;;;;0.70;0.60;;;;;;;;;;5054529;28;20428;-74
2022/01/20 12:02:34;;;;;;;0.63;0.60;;;;;;;;;;5056097;28;20473;-75
2022/01/20 12:05:16;;;;;;;0.60;0.50;;;;;;;;;;5054499;28;20515;-74
2022/01/20 12:08:04;;;;;;;0.60;0.57;;;;;;;;;;5054543;28;20486;-74
2022/01/20 12:10:31;;;;;;;0.60;0.60;;;;;;;;;;5074933;28;20447;-75
2022/01/20 12:13:07;;;;;;;0.60;0.60;;;;;;;;;;5062834;28;20758;-74
2022/01/20 12:15:47;;;;;;;0.60;0.60;;;;;;;;;;5055474;28;20416;-74
2022/01/20 12:18:16;;;;;;;0.70;0.60;;;;;;;;;;5065731;28;20455;-76
2022/01/20 12:20:45;;;;;;;0.60;0.60;;;;;;;;;;5091319;28;20496;-75
2022/01/20 12:23:12;;;;;;;0.70;0.60;;;;;;;;;;5074121;28;20455;-75
2022/01/20 12:25:39;;;;;;;0.70;0.60;;;;;;;;;;5069325;28;20436;-74
2022/01/20 12:28:08;;;;;;;0.60;0.50;;;;;;;;;;5058137;28;20424;-75
2022/01/20 12:30:37;;;;;;;0.80;0.80;;;;;;;;;;5038001;28;20838;-74
2022/01/20 12:33:07;;;;;;;0.60;0.60;;;;;;;;;;5058437;28;20440;-75
2022/01/20 12:35:40;;;;;;;3.33;1.07;;;;;;;;;;5062555;28;20535;-75
2022/01/20 12:38:18;;;;;;;0.70;0.60;;;;;;;;;;5037581;28;20506;-75
2022/01/20 12:41:01;;;;;;;0.63;0.60;;;;;;;;;;5069896;28;20471;-74
2022/01/20 12:43:35;;;;;;;0.70;0.70;;;;;;;;;;5056571;28;20426;-74
2022/01/20 12:46:02;;;;;;;0.60;0.60;;;;;;;;;;5054035;28;20447;-75
2022/01/20 12:48:30;;;;;;;0.60;0.60;;;;;;;;;;5053974;28;20449;-75
2022/01/20 12:51:01;;;;;;;0.60;0.60;;;;;;;;;;5057482;28;21035;-76
2022/01/20 12:53:35;;;;;;;0.70;0.60;;;;;;;;;;5064721;28;20461;-76
2022/01/20 12:56:03;;;;;;;0.70;0.60;;;;;;;;;;5056636;28;20449;-75
2022/01/20 12:58:30;;;;;;;0.60;0.60;;;;;;;;;;5072237;28;20467;-74
2022/01/20 13:01:02;;;;;;;0.60;0.60;;;;;;;;;;5073909;28;20451;-74
2022/01/20 13:03:33;;;;;;;0.60;0.60;;;;;;;;;;5074159;28;20859;-74
2022/01/20 13:06:01;;;;;;;0.70;0.60;;;;;;;;;;5074234;28;20906;-75
2022/01/20 13:08:36;;;;;;;0.70;0.60;;;;;;;;;;5073062;28;20470;-75
2022/01/20 13:11:04;;;;;;;0.70;0.60;;;;;;;;;;5073063;28;20468;-75
2022/01/20 13:13:32;;;;;;;0.60;0.60;;;;;;;;;;5073750;28;20470;-75
2022/01/20 13:16:08;;;;;;;0.60;0.60;;;;;;;;;;5073302;28;20987;-75
2022/01/20 13:18:35;;;;;;;0.70;0.63;;;;;;;;;;5055708;28;20443;-75
2022/01/20 13:21:07;;;;;;;0.60;0.60;;;;;;;;;;5075279;28;20870;-75
2022/01/20 13:23:55;;;;;;;0.70;0.60;;;;;;;;;;5069103;28;20533;-73
2022/01/20 13:26:22;;;;;;;0.60;0.60;;;;;;;;;;5054021;28;20429;-77
2022/01/20 13:28:56;;;;;;;0.60;0.60;;;;;;;;;;5061707;28;20436;-75
2022/01/20 13:31:38;;;;;;;0.60;0.60;;;;;;;;;;5067337;28;20779;-75
2022/01/20 13:34:06;;;;;;;0.60;0.60;;;;;;;;;;5074063;28;20435;-75
2022/01/20 13:36:37;;;;;;;0.60;0.60;;;;;;;;;;5069295;28;21032;-75
2022/01/20 13:39:05;;;;;;;0.70;0.60;;;;;;;;;;5070210;28;20938;-75
2022/01/20 13:41:32;;;;;;;0.60;0.60;;;;;;;;;;5071383;28;20439;-74
2022/01/20 13:46:47;;;;;;;0.70;0.60;;;;;;;;;;5072414;28;20165;-74
2022/01/20 13:49:14;;;;;;;0.70;0.60;;;;;;;;;;5073445;28;20462;-74
2022/01/20 13:51:44;;;;;;;1.90;1.73;;;;;;;;;;5071585;28;20485;-75
2022/01/20 13:54:12;;;;;;;0.70;0.60;;;;;;;;;;5072083;28;20959;-79
2022/01/20 13:56:49;;;;;;;0.60;0.60;;;;;;;;;;5066139;28;20462;-75
2022/01/20 13:59:16;;;;;;;0.70;0.60;;;;;;;;;;5056292;28;20450;-75
2022/01/20 14:01:56;;;;;;;0.70;0.60;;;;;;;;;;5061664;28;20448;-74
2022/01/20 14:04:23;;;;;;;0.60;0.60;;;;;;;;;;5053042;28;20425;-74
2022/01/20 14:06:52;;;;;;;0.70;0.60;;;;;;;;;;5053657;28;20483;-74
2022/01/20 14:09:19;;;;;;;0.70;0.60;;;;;;;;;;5061490;28;20204;-77
2022/01/20 14:11:47;;;;;;;0.70;0.60;;;;;;;;;;5062516;28;20502;-75
2022/01/20 14:14:15;;;;;;;0.65;0.60;;;;;;;;;;5060999;28;20184;-74
2022/01/20 14:16:41;;;;;;;0.70;0.60;;;;;;;;;;5054711;28;20252;-74
2022/01/20 14:19:10;;;;;;;0.60;0.60;;;;;;;;;;5052745;28;20200;-74
2022/01/20 14:21:38;;;;;;;0.70;0.60;;;;;;;;;;5052211;28;20711;-75
2022/01/20 14:24:06;;;;;;;0.60;0.60;;;;;;;;;;5069450;28;20242;-74
2022/01/20 14:26:42;;;;;;;0.60;0.60;;;;;;;;;;5055741;28;20443;-74
2022/01/20 14:29:09;;;;;;;0.70;0.60;;;;;;;;;;5072038;28;21000;-75
2022/01/20 14:31:36;;;;;;;0.63;0.60;;;;;;;;;;5066793;28;20440;-74
2022/01/20 14:34:03;;;;;;;0.70;0.68;;;;;;;;;;5064729;28;20224;-74
2022/01/20 14:36:30;;;;;;;0.65;0.60;;;;;;;;;;5072083;28;20220;-74
2022/01/20 14:38:57;;;;;;;0.60;0.60;;;;;;;;;;5064572;28;20191;-76
2022/01/20 14:41:28;;;;;;;0.70;0.60;;;;;;;;;;5071888;28;20300;-74
2022/01/20 14:43:55;;;;;;;0.70;0.60;;;;;;;;;;5068672;28;20196;-75
2022/01/20 14:46:22;;;;;;;0.70;0.70;;;;;;;;;;5056441;28;20193;-76
2022/01/20 14:48:50;;;;;;;0.60;0.60;;;;;;;;;;5064673;28;20461;-75
2022/01/20 14:51:17;;;;;;;0.70;0.60;;;;;;;;;;5069652;28;20439;-75
2022/01/20 14:53:46;;;;;;;0.70;0.70;;;;;;;;;;5071716;28;20685;-76
2022/01/20 14:56:19;;;;;;;0.70;0.60;;;;;;;;;;5073229;28;20419;-75
2022/01/20 14:58:51;;;;;;;0.70;0.60;;;;;;;;;;5072543;28;20450;-75
2022/01/20 15:01:18;;;;;;;0.70;0.70;;;;;;;;;;5060040;28;20180;-75
2022/01/20 15:03:50;;;;;;;0.70;0.60;;;;;;;;;;5052909;28;20186;-76
2022/01/20 15:06:17;;;;;;;0.70;0.60;;;;;;;;;;5037339;28;20201;-75
2022/01/20 15:08:44;;;;;;;0.70;0.60;;;;;;;;;;5056694;28;20644;-75
2022/01/20 15:11:10;;;;;;;4.53;1.08;;;;;;;;;;5072644;28;20661;-75
2022/01/20 15:13:38;;;;;;;1.38;1.27;;;;;;;;;;5069726;28;20203;-75
2022/01/20 15:16:06;;;;;;;0.70;0.60;;;;;;;;;;5071389;28;20189;-74
2022/01/20 15:18:33;;;;;;;0.70;0.60;;;;;;;;;;5070644;28;20694;-75
2022/01/20 15:21:01;;;;;;;0.70;0.60;;;;;;;;;;5072227;28;20617;-75
2022/01/20 15:23:28;;;;;;;0.70;0.63;;;;;;;;;;5072982;28;20208;-75
2022/01/20 15:25:55;;;;;;;0.70;0.70;;;;;;;;;;5070173;28;20193;-75
2022/01/20 15:28:23;;;;;;;0.70;0.70;;;;;;;;;;5076004;28;20658;-75
2022/01/20 15:30:51;;;;;;;0.70;0.60;;;;;;;;;;5075585;28;20287;-76
2022/01/20 15:33:19;;;;;;;0.70;0.60;;;;;;;;;;5058796;28;20185;-75
2022/01/20 15:35:47;;;;;;;0.70;0.60;;;;;;;;;;5075521;28;21051;-75
2022/01/20 15:38:15;;;;;;;0.70;0.70;;;;;;;;;;5075578;28;20278;-75
2022/01/20 15:40:42;;;;;;;0.70;0.60;;;;;;;;;;5075950;28;20232;-74
2022/01/20 15:43:09;;;;;;;0.70;0.60;;;;;;;;;;5057301;28;20193;-74
2022/01/20 15:45:36;;;;;;;0.70;0.70;;;;;;;;;;5075704;28;20205;-75
2022/01/20 15:48:04;;;;;;;0.70;0.60;;;;;;;;;;5075382;28;20174;-75
2022/01/20 15:50:33;;;;;;;0.70;0.70;;;;;;;;;;5058223;28;20242;-75
2022/01/20 15:53:04;;;;;;;0.70;0.60;;;;;;;;;;5038273;28;20287;-74
2022/01/20 15:55:32;;;;;;;0.70;0.60;;;;;;;;;;5041311;28;20197;-75
2022/01/20 15:57:59;;;;;;;0.70;0.60;;;;;;;;;;5038351;28;20213;-75
2022/01/20 16:00:27;;;;;;;0.70;0.60;;;;;;;;;;5055448;28;20531;-75
2022/01/20 16:02:56;;;;;;;0.70;0.60;;;;;;;;;;5055435;28;20185;-75
2022/01/20 16:05:23;;;;;;;0.70;0.60;;;;;;;;;;5038977;28;20189;-74
2022/01/20 16:07:53;;;;;;;0.70;0.60;;;;;;;;;;5076003;28;20231;-75
2022/01/20 16:10:19;;;;;;;0.70;0.60;;;;;;;;;;5062769;28;20225;-75
2022/01/20 16:12:50;;;;;;;0.70;0.60;;;;;;;;;;5055147;28;20273;-75
2022/01/20 16:15:17;;;;;;;0.70;0.63;;;;;;;;;;5055199;28;20281;-74
2022/01/20 16:17:44;;;;;;;0.70;0.60;;;;;;;;;;5056786;28;20201;-75
2022/01/20 16:20:11;;;;;;;0.70;0.60;;;;;;;;;;5054458;28;20205;-74
2022/01/20 16:22:38;;;;;;;0.70;0.60;;;;;;;;;;5054591;28;20225;-75